Time;durP1;ratioP1;P1;durP2;ratioP2;P2;SDS_P1;SDS_P2;PMS_P1;PMS_P2;Temp;Humidity;BMP_temperature;BMP_pressure;BME280_temperature;BME280_humidity;BME280_pressure;Samples;Min_cycle;Max_cycle;Signal;HPM_P1;HPM_P2
2021/08/14 00:00:35;;;;;;;13.65;9.05;;;;;;;20.01;60.33;100370.38;5028232;28;20383;-67
2021/08/14 00:03:02;;;;;;;10.77;8.85;;;;;;;20.03;60.33;100373.69;5028403;28;20056;-68
2021/08/14 00:05:29;;;;;;;10.98;9.02;;;;;;;20.07;60.34;100374.19;5028522;28;20048;-63
2021/08/14 00:07:57;;;;;;;12.05;9.10;;;;;;;20.10;60.19;100373.88;5028286;28;20390;-61
2021/08/14 00:10:24;;;;;;;12.88;8.80;;;;;;;20.12;60.41;100376.38;5029061;28;20116;-61
2021/08/14 00:12:51;;;;;;;10.70;8.43;;;;;;;20.14;60.10;100371.69;5028394;28;20048;-61
2021/08/14 00:15:18;;;;;;;10.10;8.23;;;;;;;20.19;60.33;100372.00;5028120;28;20068;-69
2021/08/14 00:17:45;;;;;;;11.50;8.68;;;;;;;20.20;60.39;100373.66;5028457;28;20107;-65
2021/08/14 00:20:12;;;;;;;13.00;9.02;;;;;;;20.22;59.83;100366.28;5029241;28;20045;-68
2021/08/14 00:22:39;;;;;;;14.13;9.35;;;;;;;20.23;60.07;100370.66;5028717;28;20494;-63
2021/08/14 00:25:10;;;;;;;10.82;8.73;;;;;;;20.26;59.95;100367.63;5028526;28;20041;-61
2021/08/14 00:27:37;;;;;;;10.15;9.00;;;;;;;20.26;59.93;100359.59;5027617;28;20069;-62
2021/08/14 00:30:05;;;;;;;10.13;8.98;;;;;;;20.28;59.95;100351.38;5027079;28;20062;-59
2021/08/14 00:32:32;;;;;;;12.48;9.15;;;;;;;20.28;59.84;100351.38;5026790;28;20480;-60
2021/08/14 00:34:58;;;;;;;11.90;8.90;;;;;;;20.27;60.09;100349.69;5026968;28;20049;-61
2021/08/14 00:37:25;;;;;;;10.50;8.85;;;;;;;20.27;60.15;100355.88;5028926;28;20134;-63
2021/08/14 00:39:52;;;;;;;11.30;9.77;;;;;;;20.28;60.00;100357.56;5028845;28;20053;-60
2021/08/14 00:42:20;;;;;;;9.70;8.65;;;;;;;20.27;60.11;100355.06;5027636;28;20045;-67
2021/08/14 00:44:47;;;;;;;13.48;9.55;;;;;;;20.29;60.16;100355.72;5027541;28;20049;-61
2021/08/14 00:47:14;;;;;;;12.55;8.07;;;;;;;20.31;59.91;100349.19;5027996;28;20053;-61
2021/08/14 00:49:41;;;;;;;14.00;9.60;;;;;;;20.34;59.69;100351.50;5027838;28;20049;-61
2021/08/14 00:52:08;;;;;;;13.77;8.75;;;;;;;20.35;59.81;100350.50;5027358;28;20049;-60
2021/08/14 00:54:35;;;;;;;14.20;9.40;;;;;;;20.38;59.61;100349.31;5027886;28;20054;-62
2021/08/14 00:57:02;;;;;;;10.40;8.15;;;;;;;20.39;59.45;100351.81;5027252;28;20390;-61
2021/08/14 00:59:31;;;;;;;12.23;9.63;;;;;;;20.42;59.80;100345.28;5027524;28;20050;-63
2021/08/14 01:01:57;;;;;;;10.98;8.95;;;;;;;20.42;59.68;100343.44;5028316;28;20057;-61
2021/08/14 01:04:24;;;;;;;14.35;8.68;;;;;;;20.42;59.65;100327.34;5027339;28;20049;-62
2021/08/14 01:06:51;;;;;;;11.90;9.30;;;;;;;20.44;59.61;100332.53;5028309;28;20068;-61
2021/08/14 01:09:18;;;;;;;12.65;9.20;;;;;;;20.48;59.77;100341.91;5027481;28;20107;-60
2021/08/14 01:11:45;;;;;;;12.23;8.82;;;;;;;20.49;59.44;100334.69;5028284;28;20049;-60
2021/08/14 01:14:13;;;;;;;11.23;9.25;;;;;;;20.48;59.50;100328.50;5028003;28;20046;-61
2021/08/14 01:16:42;;;;;;;14.30;9.35;;;;;;;20.48;59.50;100330.34;5027789;28;20049;-61
2021/08/14 01:19:09;;;;;;;10.80;8.60;;;;;;;20.47;59.58;100332.16;5027753;28;20395;-61
2021/08/14 01:21:36;;;;;;;14.07;9.35;;;;;;;20.49;59.79;100334.69;5026895;28;20485;-61
2021/08/14 01:24:04;;;;;;;10.70;8.68;;;;;;;20.48;59.41;100327.66;5027236;28;20037;-62
2021/08/14 01:26:32;;;;;;;11.93;8.70;;;;;;;20.49;59.65;100318.59;5028394;28;20049;-61
2021/08/14 01:29:01;;;;;;;11.40;8.52;;;;;;;20.52;59.59;100320.94;5027617;28;20497;-62
2021/08/14 01:31:28;;;;;;;11.05;8.30;;;;;;;20.52;59.32;100318.25;5027074;28;20092;-61
2021/08/14 01:33:56;;;;;;;13.20;10.18;;;;;;;20.52;59.72;100318.25;5028173;28;20049;-62
2021/08/14 01:36:23;;;;;;;9.52;8.52;;;;;;;20.52;59.22;100319.06;5028071;28;20497;-62
2021/08/14 01:38:51;;;;;;;12.55;9.77;;;;;;;20.52;59.37;100323.63;5027317;28;20050;-61
2021/08/14 01:41:19;;;;;;;14.63;8.98;;;;;;;20.52;59.50;100324.44;5028313;28;20049;-62
2021/08/14 01:43:54;;;;;;;12.25;8.77;;;;;;;20.50;59.64;100314.91;5028330;28;20060;-63
2021/08/14 01:46:23;;;;;;;9.65;7.95;;;;;;;20.49;59.58;100313.22;5027098;28;20120;-62
2021/08/14 01:48:49;;;;;;;10.80;8.68;;;;;;;20.46;59.72;100310.91;5027699;28;20049;-62
2021/08/14 01:51:16;;;;;;;10.70;8.45;;;;;;;20.43;59.89;100304.03;5027563;28;20045;-61
2021/08/14 01:53:46;;;;;;;12.70;9.73;;;;;;;20.42;59.76;100303.19;5027114;28;20046;-62
2021/08/14 01:56:14;;;;;;;14.00;9.88;;;;;;;20.40;59.97;100304.38;5027393;28;20045;-62
2021/08/14 01:58:40;;;;;;;12.18;8.15;;;;;;;20.39;60.06;100306.22;5028110;28;20050;-61
2021/08/14 02:01:07;;;;;;;13.73;9.35;;;;;;;20.36;59.96;100309.25;5028150;28;20434;-62
2021/08/14 02:03:36;;;;;;;9.35;7.40;;;;;;;20.34;59.93;100305.91;5027199;28;20053;-65
2021/08/14 02:06:03;;;;;;;13.68;9.27;;;;;;;20.30;60.04;100309.94;5026370;28;20045;-61
2021/08/14 02:08:30;;;;;;;14.18;9.45;;;;;;;20.26;60.03;100303.28;5027212;28;20053;-62
2021/08/14 02:10:57;;;;;;;12.68;8.25;;;;;;;20.24;60.19;100300.75;5026573;28;20079;-60
2021/08/14 02:13:24;;;;;;;14.00;9.85;;;;;;;20.24;60.39;100294.56;5026287;28;20059;-63
2021/08/14 02:15:50;;;;;;;12.93;9.07;;;;;;;20.21;60.23;100294.91;5027167;28;20078;-63
2021/08/14 02:18:17;;;;;;;11.80;9.60;;;;;;;20.19;60.58;100294.25;5027075;28;20060;-60
2021/08/14 02:20:45;;;;;;;9.75;8.73;;;;;;;20.16;60.41;100294.59;5025871;28;20046;-66
2021/08/14 02:23:12;;;;;;;13.00;9.18;;;;;;;20.12;60.48;100285.22;5026315;28;20053;-61
2021/08/14 02:25:39;;;;;;;13.15;9.27;;;;;;;20.12;60.78;100290.59;5026617;28;20060;-65
2021/08/14 02:28:06;;;;;;;12.32;10.13;;;;;;;20.10;60.59;100287.25;5026427;28;20049;-62
2021/08/14 02:30:33;;;;;;;14.43;10.68;;;;;;;20.08;60.73;100278.50;5026739;28;20046;-66
2021/08/14 02:33:00;;;;;;;11.68;9.27;;;;;;;20.07;60.70;100285.72;5026607;28;20489;-70
2021/08/14 02:35:27;;;;;;;12.15;9.63;;;;;;;20.03;61.05;100276.34;5026064;28;20053;-63
2021/08/14 02:37:55;;;;;;;14.98;10.20;;;;;;;20.03;61.27;100281.72;5026548;28;20425;-63
2021/08/14 02:40:22;;;;;;;10.55;9.35;;;;;;;20.00;61.30;100279.38;5026431;28;20053;-62
2021/08/14 02:42:49;;;;;;;14.82;9.65;;;;;;;19.97;61.13;100280.56;5026815;28;20072;-62
2021/08/14 02:45:16;;;;;;;10.82;9.73;;;;;;;19.95;61.25;100277.22;5026090;28;20046;-61
2021/08/14 02:47:43;;;;;;;14.95;9.38;;;;;;;19.91;61.66;100272.38;5027120;28;20064;-63
2021/08/14 02:50:11;;;;;;;12.60;10.20;;;;;;;19.88;61.70;100268.19;5026458;28;20045;-66
2021/08/14 02:52:38;;;;;;;13.45;10.95;;;;;;;19.85;61.89;100268.53;5026387;28;20049;-63
2021/08/14 02:55:07;;;;;;;17.55;10.05;;;;;;;19.83;61.93;100265.19;5029134;28;20053;-61
2021/08/14 02:57:35;;;;;;;13.27;11.18;;;;;;;19.80;62.05;100262.84;5030428;28;20054;-66
2021/08/14 03:00:02;;;;;;;13.38;10.13;;;;;;;19.79;62.14;100269.19;5030608;28;20045;-60
2021/08/14 03:02:29;;;;;;;10.98;9.80;;;;;;;19.76;62.23;100266.88;5031596;28;20165;-61
2021/08/14 03:04:55;;;;;;;15.20;10.80;;;;;;;19.77;62.36;100265.84;5030327;28;20061;-66
2021/08/14 03:07:22;;;;;;;12.35;9.88;;;;;;;19.76;62.57;100264.19;5030288;28;20064;-65
2021/08/14 03:09:49;;;;;;;13.95;11.00;;;;;;;19.76;62.41;100258.84;5030745;28;20056;-62
2021/08/14 03:12:18;;;;;;;14.32;10.25;;;;;;;19.79;62.53;100255.81;5031893;28;20046;-68
2021/08/14 03:14:45;;;;;;;13.70;10.70;;;;;;;19.78;62.31;100257.66;5030956;28;20394;-68
2021/08/14 03:17:12;;;;;;;16.77;11.63;;;;;;;19.79;62.48;100258.47;5031510;28;20061;-65
2021/08/14 03:19:38;;;;;;;18.05;10.98;;;;;;;19.80;62.36;100260.16;5030366;28;20485;-65
2021/08/14 03:22:05;;;;;;;17.55;11.07;;;;;;;19.79;62.54;100271.88;5028997;28;20072;-66
2021/08/14 03:24:32;;;;;;;12.18;10.35;;;;;;;19.79;62.77;100263.84;5028878;28;20065;-62
2021/08/14 03:26:59;;;;;;;16.90;12.32;;;;;;;19.80;63.12;100268.22;5029741;28;20049;-67
2021/08/14 03:29:27;;;;;;;11.73;10.48;;;;;;;19.81;62.90;100267.22;5029362;28;20069;-64
2021/08/14 03:31:54;;;;;;;15.02;11.73;;;;;;;19.84;63.02;100272.22;5029055;28;20045;-62
2021/08/14 03:34:21;;;;;;;13.60;10.75;;;;;;;19.87;62.93;100266.50;5028713;28;20637;-63
2021/08/14 03:36:48;;;;;;;15.90;11.40;;;;;;;19.90;62.81;100268.84;5028694;28;20049;-62
2021/08/14 03:39:15;;;;;;;12.43;11.13;;;;;;;19.95;62.69;100274.53;5029488;28;20050;-61
2021/08/14 03:41:42;;;;;;;13.50;11.75;;;;;;;20.00;62.95;100274.84;5029606;28;20417;-65
2021/08/14 03:44:09;;;;;;;16.08;13.43;;;;;;;20.05;62.90;100268.97;5029866;28;20151;-63
2021/08/14 03:46:38;;;;;;;16.77;11.25;;;;;;;20.11;62.69;100272.81;5028796;28;20041;-64
2021/08/14 03:49:04;;;;;;;15.73;11.73;;;;;;;20.18;62.50;100269.25;5028624;28;20059;-64
2021/08/14 03:51:31;;;;;;;20.15;11.27;;;;;;;20.24;62.40;100271.25;5028824;28;20106;-64
2021/08/14 03:53:58;;;;;;;16.85;12.77;;;;;;;20.27;62.49;100270.06;5028780;28;20060;-60
2021/08/14 03:56:25;;;;;;;12.27;10.77;;;;;;;20.30;62.64;100271.56;5010556;28;20041;-64
2021/08/14 03:58:52;;;;;;;13.68;11.10;;;;;;;20.30;62.48;100277.75;5029029;28;20060;-62
2021/08/14 04:01:19;;;;;;;16.20;11.20;;;;;;;20.34;62.72;100262.97;5028940;28;20592;-62
2021/08/14 04:03:47;;;;;;;13.95;12.30;;;;;;;20.35;62.68;100275.41;5028279;28;20050;-65
2021/08/14 04:06:14;;;;;;;21.33;13.18;;;;;;;20.41;62.57;100271.19;5028993;28;20417;-67
2021/08/14 04:08:41;;;;;;;15.43;12.57;;;;;;;20.44;62.75;100276.19;5028227;28;20057;-67
2021/08/14 04:11:08;;;;;;;17.80;12.25;;;;;;;20.47;62.43;100278.50;5029052;28;20042;-63
2021/08/14 04:13:35;;;;;;;16.88;12.50;;;;;;;20.50;62.72;100278.16;5029494;28;20489;-65
2021/08/14 04:16:03;;;;;;;15.63;12.10;;;;;;;20.55;62.69;100278.50;5030031;28;20417;-63
2021/08/14 04:18:30;;;;;;;17.90;12.63;;;;;;;20.67;62.15;100283.47;5028363;28;20060;-62
2021/08/14 04:20:58;;;;;;;15.55;12.93;;;;;;;20.77;61.89;100276.88;5029258;28;20421;-62
2021/08/14 04:23:25;;;;;;;15.75;10.82;;;;;;;20.90;61.71;100278.16;5029629;28;20053;-67
2021/08/14 04:25:52;;;;;;;13.77;12.23;;;;;;;21.01;61.56;100277.72;5028557;28;20060;-63
2021/08/14 04:28:19;;;;;;;16.70;13.10;;;;;;;21.13;61.33;100278.16;5028284;28;20508;-67
2021/08/14 04:30:46;;;;;;;16.45;12.65;;;;;;;21.28;61.11;100279.03;5029181;28;20045;-62
2021/08/14 04:33:12;;;;;;;14.00;12.27;;;;;;;21.49;60.63;100277.56;5029502;28;20057;-66
2021/08/14 04:35:39;;;;;;;14.60;11.82;;;;;;;21.66;60.21;100279.06;5030005;28;20046;-63
2021/08/14 04:38:07;;;;;;;15.73;12.93;;;;;;;21.74;60.11;100278.16;5028935;28;20050;-63
2021/08/14 04:40:34;;;;;;;16.33;12.50;;;;;;;21.77;60.06;100273.25;5028913;28;20056;-67
2021/08/14 04:43:01;;;;;;;13.68;11.90;;;;;;;21.83;59.96;100274.34;5029596;28;20054;-66
2021/08/14 04:45:28;;;;;;;14.77;11.88;;;;;;;21.80;60.20;100272.03;5028358;28;20053;-62
2021/08/14 04:47:55;;;;;;;15.05;12.98;;;;;;;21.76;60.49;100271.56;5028296;28;20053;-63
2021/08/14 04:50:22;;;;;;;14.07;12.52;;;;;;;21.74;60.66;100267.41;5027808;28;20459;-63
2021/08/14 04:52:49;;;;;;;15.40;12.05;;;;;;;21.77;60.27;100269.72;5029075;28;20047;-61
2021/08/14 04:55:17;;;;;;;16.05;11.70;;;;;;;21.79;60.59;100267.69;5029391;28;20057;-61
2021/08/14 04:57:44;;;;;;;16.58;11.75;;;;;;;21.85;60.46;100277.69;5028657;28;20057;-60
2021/08/14 05:00:12;;;;;;;14.13;12.65;;;;;;;21.96;60.17;100276.41;5028716;28;20080;-62
2021/08/14 05:02:38;;;;;;;15.10;12.38;;;;;;;22.20;59.69;100275.28;5027971;28;20045;-62
2021/08/14 05:05:07;;;;;;;16.35;12.18;;;;;;;22.36;59.34;100292.28;5028590;28;20049;-64
2021/08/14 05:07:34;;;;;;;14.38;12.13;;;;;;;22.52;59.12;100290.19;5027744;28;20478;-64
2021/08/14 05:10:01;;;;;;;16.60;12.88;;;;;;;22.79;58.41;100287.00;5028844;28;20053;-67
2021/08/14 05:12:29;;;;;;;15.48;12.80;;;;;;;23.12;57.83;100286.53;5027873;28;20045;-65
2021/08/14 05:14:56;;;;;;;19.30;13.73;;;;;;;23.58;56.76;100288.78;5029214;28;20045;-62
2021/08/14 05:17:23;;;;;;;17.60;12.35;;;;;;;23.87;55.90;100286.97;5027562;28;20060;-61
2021/08/14 05:19:50;;;;;;;14.20;12.60;;;;;;;23.87;56.00;100286.97;5028309;28;20046;-61
2021/08/14 05:22:17;;;;;;;20.73;12.73;;;;;;;23.84;56.36;100290.88;5029781;28;20068;-61
2021/08/14 05:24:44;;;;;;;13.80;11.85;;;;;;;23.79;56.25;100286.03;5030380;28;20046;-61
2021/08/14 05:27:12;;;;;;;17.08;12.30;;;;;;;23.72;56.58;100279.78;5029639;28;20046;-64
2021/08/14 05:29:40;;;;;;;15.60;11.90;;;;;;;23.69;56.66;100274.75;5030433;28;20627;-65
2021/08/14 05:32:08;;;;;;;15.68;12.80;;;;;;;23.66;56.71;100276.00;5032217;28;20049;-63
2021/08/14 05:34:35;;;;;;;15.15;13.50;;;;;;;23.73;56.83;100275.22;5029620;28;20060;-66
2021/08/14 05:37:02;;;;;;;16.85;13.05;;;;;;;23.70;56.85;100276.44;5032403;28;20049;-65
2021/08/14 05:39:29;;;;;;;16.08;13.15;;;;;;;23.69;56.94;100282.84;5031134;28;20083;-64
2021/08/14 05:41:56;;;;;;;16.08;12.68;;;;;;;23.63;57.19;100280.97;5032432;28;20046;-68
2021/08/14 05:44:23;;;;;;;17.70;12.77;;;;;;;23.70;56.62;100283.69;5031996;28;20151;-61
2021/08/14 05:46:51;;;;;;;17.95;12.48;;;;;;;23.81;56.66;100281.31;5031580;28;20061;-62
2021/08/14 05:49:18;;;;;;;17.55;12.43;;;;;;;23.95;56.15;100276.00;5030833;28;20116;-62
2021/08/14 05:51:45;;;;;;;15.95;12.77;;;;;;;24.01;55.83;100283.31;5032165;28;20128;-61
2021/08/14 05:54:12;;;;;;;15.48;13.45;;;;;;;24.11;56.06;100285.63;5032251;28;20042;-61
2021/08/14 05:56:39;;;;;;;16.30;13.98;;;;;;;24.20;55.95;100288.00;5035576;28;20045;-66
2021/08/14 05:59:06;;;;;;;19.75;12.98;;;;;;;24.30;55.77;100282.22;5033662;28;20053;-69
2021/08/14 06:01:33;;;;;;;22.83;13.75;;;;;;;24.33;55.56;100289.91;5031585;28;20049;-67
2021/08/14 06:04:01;;;;;;;17.20;12.75;;;;;;;24.40;55.56;100285.38;5034338;28;20049;-66
2021/08/14 06:06:28;;;;;;;16.75;12.40;;;;;;;24.52;55.54;100288.31;5033331;28;20052;-70
2021/08/14 06:08:55;;;;;;;15.57;12.43;;;;;;;24.60;55.31;100282.78;5031422;28;20069;-70
2021/08/14 06:11:22;;;;;;;15.77;13.18;;;;;;;24.72;55.06;100293.00;5034320;28;20049;-66
2021/08/14 06:13:48;;;;;;;18.65;11.73;;;;;;;24.88;54.83;100289.09;5031348;28;20152;-68
2021/08/14 06:16:16;;;;;;;15.65;12.70;;;;;;;25.00;54.58;100282.88;5030447;28;20052;-70
2021/08/14 06:18:43;;;;;;;16.95;11.95;;;;;;;25.17;54.40;100294.13;5031484;28;20063;-67
2021/08/14 06:21:11;;;;;;;16.50;13.63;;;;;;;25.43;54.33;100287.09;5028872;28;20045;-72
2021/08/14 06:23:38;;;;;;;15.95;13.63;;;;;;;25.74;53.41;100280.22;5025678;28;20061;-70
2021/08/14 06:26:06;;;;;;;16.70;13.48;;;;;;;26.06;52.49;100291.22;5027642;28;20049;-73
2021/08/14 06:28:33;;;;;;;15.30;13.60;;;;;;;26.46;51.78;100291.91;5025130;28;20079;-66
2021/08/14 06:31:00;;;;;;;17.33;13.23;;;;;;;26.76;51.15;100288.69;5023423;28;20056;-66
2021/08/14 06:33:27;;;;;;;16.20;11.77;;;;;;;27.04;50.54;100290.16;5025972;28;20049;-70
2021/08/14 06:35:53;;;;;;;18.98;13.25;;;;;;;27.19;50.12;100287.97;5025684;28;20055;-67
2021/08/14 06:38:22;;;;;;;18.30;12.93;;;;;;;27.37;49.64;100283.69;5026142;28;20521;-68
2021/08/14 06:40:49;;;;;;;19.50;12.00;;;;;;;27.39;49.46;100296.00;5036039;28;20048;-68
2021/08/14 06:43:16;;;;;;;13.23;11.85;;;;;;;27.58;49.40;100288.72;5036161;28;20061;-71
2021/08/14 06:45:43;;;;;;;13.90;12.27;;;;;;;27.81;48.93;100287.25;5037976;28;20072;-66
2021/08/14 06:48:09;;;;;;;17.73;12.77;;;;;;;28.00;48.95;100279.97;5033838;28;20046;-66
2021/08/14 06:50:36;;;;;;;16.42;12.05;;;;;;;28.05;48.66;100288.28;5033688;28;20053;-73
2021/08/14 06:53:04;;;;;;;19.02;11.90;;;;;;;28.05;48.50;100280.13;5030683;28;20053;-70
2021/08/14 06:55:32;;;;;;;16.15;12.70;;;;;;;28.12;47.95;100293.66;5030599;28;20046;-67
2021/08/14 06:57:59;;;;;;;13.93;12.18;;;;;;;28.12;48.29;100296.38;5027944;28;20390;-67
2021/08/14 07:00:26;;;;;;;18.10;11.93;;;;;;;28.19;48.56;100297.13;5026688;28;20061;-67
2021/08/14 07:02:53;;;;;;;13.35;10.98;;;;;;;28.32;48.09;100302.38;5027647;28;20049;-73
2021/08/14 07:05:20;;;;;;;14.90;11.10;;;;;;;28.23;48.02;100295.59;5029484;28;20049;-67
2021/08/14 07:07:47;;;;;;;15.30;11.90;;;;;;;28.53;47.66;100300.28;5047137;28;20520;-67
2021/08/14 07:10:15;;;;;;;18.65;12.00;;;;;;;28.88;46.91;100307.75;5031506;28;20084;-66
2021/08/14 07:12:46;;;;;;;16.00;11.27;;;;;;;29.13;46.45;100297.53;5033736;28;20059;-69
2021/08/14 07:15:13;;;;;;;13.90;11.93;;;;;;;29.39;45.96;100303.69;5029220;28;20049;-69
2021/08/14 07:17:41;;;;;;;16.67;12.80;;;;;;;29.54;45.74;100298.59;5032044;28;20080;-68
2021/08/14 07:20:09;;;;;;;12.35;10.38;;;;;;;29.69;45.52;100309.03;5033882;28;20053;-71
2021/08/14 07:22:36;;;;;;;13.23;11.30;;;;;;;29.82;45.03;100313.44;5034205;28;20374;-69
2021/08/14 07:25:03;;;;;;;13.60;11.05;;;;;;;29.79;45.15;100318.53;5029429;28;20054;-66
2021/08/14 07:27:30;;;;;;;16.85;12.20;;;;;;;29.40;45.29;100316.22;5034250;28;20469;-65
2021/08/14 07:29:59;;;;;;;17.23;12.15;;;;;;;29.08;45.06;100315.63;5038318;28;20061;-69
2021/08/14 07:32:26;;;;;;;19.63;10.80;;;;;;;28.93;45.15;100319.59;5033416;28;20485;-69
2021/08/14 07:34:53;;;;;;;13.98;10.40;;;;;;;29.09;45.06;100317.31;5037602;28;20499;-70
2021/08/14 07:37:20;;;;;;;14.10;11.38;;;;;;;28.94;44.31;100323.16;5047668;28;20045;-70
2021/08/14 07:39:46;;;;;;;13.27;9.68;;;;;;;28.90;45.01;100322.81;5047500;28;20265;-72
2021/08/14 07:42:13;;;;;;;13.10;10.80;;;;;;;28.74;43.97;100321.56;5051869;28;20045;-73
2021/08/14 07:44:42;;;;;;;14.25;11.10;;;;;;;28.58;44.46;100316.75;5051507;28;20685;-71
2021/08/14 07:47:12;;;;;;;13.50;9.95;;;;;;;28.75;44.57;100317.75;5050101;28;20048;-70
2021/08/14 07:49:39;;;;;;;13.95;11.60;;;;;;;28.66;44.18;100315.59;5049255;28;20052;-70
2021/08/14 07:52:08;;;;;;;12.88;11.43;;;;;;;28.15;44.64;100325.78;5049231;28;20045;-71
2021/08/14 07:54:35;;;;;;;16.38;11.60;;;;;;;27.96;45.34;100328.47;5048500;28;20077;-70
2021/08/14 07:57:03;;;;;;;15.10;11.50;;;;;;;27.72;45.96;100324.72;5047707;28;20056;-74
2021/08/14 07:59:33;;;;;;;13.13;11.45;;;;;;;27.60;46.38;100319.19;5017522;28;20057;-70
2021/08/14 08:01:59;;;;;;;12.77;10.35;;;;;;;27.60;46.67;100321.91;5029668;28;20640;-69
2021/08/14 08:04:28;;;;;;;14.75;10.75;;;;;;;27.62;47.06;100322.50;5036730;28;20041;-70
2021/08/14 08:06:55;;;;;;;12.95;11.10;;;;;;;27.63;46.90;100318.72;5036032;28;20047;-69
2021/08/14 08:09:21;;;;;;;15.02;13.50;;;;;;;27.68;46.08;100317.22;5036963;28;20033;-69
2021/08/14 08:11:48;;;;;;;18.50;14.32;;;;;;;27.50;45.86;100313.44;5032943;28;20037;-67
2021/08/14 08:14:15;;;;;;;16.13;14.43;;;;;;;27.41;45.79;100315.59;5038576;28;20056;-68
2021/08/14 08:16:42;;;;;;;14.82;12.30;;;;;;;27.42;45.91;100313.69;5035516;28;20049;-68
2021/08/14 08:19:09;;;;;;;15.23;12.43;;;;;;;27.54;45.39;100319.25;5037500;28;20045;-70
2021/08/14 08:21:37;;;;;;;14.50;11.63;;;;;;;27.68;44.30;100306.38;5034375;28;20404;-69
2021/08/14 08:24:05;;;;;;;12.52;11.23;;;;;;;27.79;44.57;100309.19;5027590;28;20045;-69
2021/08/14 08:26:32;;;;;;;17.42;11.07;;;;;;;27.98;44.62;100309.25;5033619;28;20457;-72
2021/08/14 08:28:59;;;;;;;15.38;13.40;;;;;;;28.09;43.87;100310.38;5032885;28;20055;-68
2021/08/14 08:31:26;;;;;;;15.23;12.48;;;;;;;28.14;43.92;100314.09;5033753;28;20176;-74
2021/08/14 08:33:53;;;;;;;19.75;12.57;;;;;;;28.44;43.72;100317.94;5038090;28;20771;-72
2021/08/14 08:36:21;;;;;;;14.88;12.13;;;;;;;28.70;43.07;100323.06;5036571;28;20049;-68
2021/08/14 08:38:49;;;;;;;14.70;12.25;;;;;;;28.66;42.25;100318.31;5037067;28;20127;-75
2021/08/14 08:41:17;;;;;;;13.15;11.77;;;;;;;28.50;42.20;100322.44;5032618;28;20148;-71
2021/08/14 08:43:45;;;;;;;15.30;13.00;;;;;;;28.57;42.65;100320.50;5036124;28;20652;-75
2021/08/14 08:46:12;;;;;;;12.30;11.00;;;;;;;28.68;43.55;100322.44;5039041;28;20095;-68
2021/08/14 08:48:44;;;;;;;16.48;12.25;;;;;;;28.97;42.95;100317.25;5036451;28;20056;-68
2021/08/14 08:51:12;;;;;;;13.23;11.77;;;;;;;29.00;43.18;100322.22;5041179;28;20042;-76
2021/08/14 08:53:39;;;;;;;15.85;14.20;;;;;;;28.88;43.36;100315.91;5036102;28;20441;-75
2021/08/14 08:56:10;;;;;;;14.70;13.23;;;;;;;28.91;42.70;100319.00;5033100;28;20115;-78
2021/08/14 08:58:37;;;;;;;17.95;12.95;;;;;;;29.09;42.85;100320.84;5034706;28;20421;-70
2021/08/14 09:01:04;;;;;;;14.90;12.55;;;;;;;29.13;42.00;100319.31;5037766;28;20047;-76
2021/08/14 09:03:32;;;;;;;13.98;10.68;;;;;;;29.23;41.25;100309.81;5033747;28;20064;-74
2021/08/14 09:05:59;;;;;;;13.13;11.07;;;;;;;29.44;42.58;100311.97;5036708;28;20056;-80
2021/08/14 09:08:27;;;;;;;14.85;11.77;;;;;;;29.83;41.63;100309.63;5030673;28;20041;-67
2021/08/14 09:11:09;;;;;;;15.05;13.43;;;;;;;29.87;40.46;100315.44;5031748;28;20079;-71
2021/08/14 09:13:36;;;;;;;14.65;11.98;;;;;;;29.68;41.03;100312.00;5033936;28;20065;-70
2021/08/14 09:16:23;;;;;;;22.05;12.20;;;;;;;29.70;41.13;100305.22;5036496;28;20057;-73
2021/08/14 09:18:54;;;;;;;13.57;10.63;;;;;;;29.96;41.32;100303.13;5034798;28;20051;-68
2021/08/14 09:21:33;;;;;;;16.88;11.02;;;;;;;29.96;39.48;100296.84;5032625;28;20452;-70
2021/08/14 09:24:04;;;;;;;15.43;10.38;;;;;;;29.76;40.24;100310.84;5031851;28;20045;-70
2021/08/14 09:26:54;;;;;;;12.15;9.68;;;;;;;29.71;39.94;100306.91;5032746;28;20219;-72
2021/08/14 09:29:30;;;;;;;17.13;11.20;;;;;;;30.02;39.57;100301.34;5030441;28;20045;-72
2021/08/14 09:31:57;;;;;;;12.13;10.82;;;;;;;29.94;39.77;100299.81;5031074;28;20695;-68
2021/08/14 09:34:26;;;;;;;12.55;11.05;;;;;;;29.83;39.51;100298.75;5033832;28;20604;-69
2021/08/14 09:37:00;;;;;;;11.38;9.73;;;;;;;29.83;39.64;100296.03;5033230;28;20380;-67
2021/08/14 09:39:27;;;;;;;14.30;10.63;;;;;;;29.98;39.53;100297.44;5030387;28;20513;-71
2021/08/14 09:42:08;;;;;;;12.13;10.52;;;;;;;29.82;38.31;100290.81;5035333;28;20049;-79
2021/08/14 09:44:35;;;;;;;14.95;10.35;;;;;;;29.82;39.55;100305.28;5035958;28;20049;-69
2021/08/14 09:47:08;;;;;;;13.35;10.45;;;;;;;29.88;39.20;100290.69;5039322;28;20091;-68
2021/08/14 09:49:52;;;;;;;12.90;9.60;;;;;;;30.08;38.73;100293.03;5042775;28;20217;-71
2021/08/14 09:52:20;;;;;;;12.07;10.70;;;;;;;30.25;38.74;100289.56;5037204;28;20125;-72
2021/08/14 09:54:47;;;;;;;12.00;9.73;;;;;;;30.46;38.96;100299.03;5041049;28;20047;-69
2021/08/14 09:57:17;;;;;;;14.07;9.98;;;;;;;30.77;38.95;100289.53;5035871;28;20041;-72
2021/08/14 09:59:45;;;;;;;12.27;8.10;;;;;;;31.12;38.05;100295.94;5031675;28;20041;-68
2021/08/14 10:02:17;;;;;;;10.98;9.05;;;;;;;31.42;36.92;100293.69;5032531;28;20091;-70
2021/08/14 10:04:46;;;;;;;11.18;8.40;;;;;;;31.52;36.14;100293.06;5025782;28;20068;-70
2021/08/14 10:07:15;;;;;;;11.10;8.27;;;;;;;31.54;36.00;100284.63;5023972;28;20132;-72
2021/08/14 10:09:43;;;;;;;12.68;8.93;;;;;;;31.25;36.06;100282.78;5024666;28;20057;-75
2021/08/14 10:12:11;;;;;;;11.00;9.55;;;;;;;31.17;35.95;100275.00;5024790;28;20045;-75
2021/08/14 10:14:40;;;;;;;8.85;7.95;;;;;;;31.25;36.64;100273.75;5023398;28;20049;-75
2021/08/14 10:17:08;;;;;;;11.52;9.48;;;;;;;31.54;35.36;100273.69;5032970;28;20061;-73
2021/08/14 10:19:36;;;;;;;12.15;8.40;;;;;;;31.81;35.79;100277.38;5029958;28;20405;-75
2021/08/14 10:22:04;;;;;;;15.30;8.95;;;;;;;32.11;35.22;100272.63;5031255;28;20051;-74
2021/08/14 10:24:36;;;;;;;10.55;9.13;;;;;;;32.22;34.09;100268.94;5033644;28;20060;-72
2021/08/14 10:27:05;;;;;;;11.05;8.68;;;;;;;31.91;33.76;100265.78;5032735;28;20510;-72
2021/08/14 10:29:47;;;;;;;12.63;9.48;;;;;;;31.43;34.81;100268.03;5033005;28;20045;-73
2021/08/14 10:32:46;;;;;;;14.15;9.98;;;;;;;31.26;34.98;100267.25;5039768;28;20048;-73
2021/08/14 10:35:36;;;;;;;15.15;10.15;;;;;;;31.05;35.44;100266.06;5033024;28;20107;-75
2021/08/14 10:38:04;;;;;;;11.98;10.00;;;;;;;31.10;35.47;100262.59;5031645;28;20132;-73
2021/08/14 10:40:59;;;;;;;12.32;10.77;;;;;;;31.14;35.78;100269.22;5039234;28;20052;-75
2021/08/14 10:43:58;;;;;;;10.75;9.25;;;;;;;31.53;35.46;100261.13;5024422;28;20053;-74
2021/08/14 10:46:44;;;;;;;12.07;8.68;;;;;;;31.42;35.76;100266.41;5031010;28;20088;-73
2021/08/14 10:49:12;;;;;;;13.77;8.85;;;;;;;31.74;35.77;100264.97;5032046;28;20236;-75
2021/08/14 10:52:12;;;;;;;14.05;9.10;;;;;;;32.00;35.78;100258.78;5029780;28;20041;-74
2021/08/14 10:55:15;;;;;;;11.57;9.52;;;;;;;31.88;34.51;100249.06;5013110;28;20128;-79
2021/08/14 10:57:50;;;;;;;12.23;10.30;;;;;;;31.72;35.34;100256.22;4979076;28;20047;-74
2021/08/14 11:00:33;;;;;;;13.48;8.07;;;;;;;31.81;35.23;100258.25;4974575;28;20058;-74
2021/08/14 11:03:07;;;;;;;17.65;10.35;;;;;;;32.11;35.43;100251.59;4970407;28;20117;-79
2021/08/14 11:05:34;;;;;;;10.43;8.53;;;;;;;32.48;35.34;100255.53;4975135;28;20403;-78
2021/08/14 11:08:03;;;;;;;11.75;8.93;;;;;;;32.54;34.60;100247.16;4972721;28;20794;-78
2021/08/14 11:10:35;;;;;;;13.52;11.63;;;;;;;31.93;34.91;100243.69;4970889;28;20222;-77
2021/08/14 11:13:03;;;;;;;29.38;13.30;;;;;;;31.59;35.96;100254.66;4972429;28;20443;-75
2021/08/14 11:15:37;;;;;;;12.93;9.75;;;;;;;31.61;36.15;100242.41;4971549;28;20074;-75
2021/08/14 11:18:06;;;;;;;13.13;9.80;;;;;;;31.68;36.39;100250.44;4975233;28;20203;-78